sensor_id;sensor_type;location;lat;lon;timestamp;temperature;humidity
19972;DHT22;10147;16.402;102.848;2023-09-30T00:00:52;25.70;99.90
19972;DHT22;10147;16.402;102.848;2023-09-30T00:03:23;25.70;99.90
19972;DHT22;10147;16.402;102.848;2023-09-30T00:05:54;25.70;99.90
19972;DHT22;10147;16.402;102.848;2023-09-30T00:08:24;25.70;99.90
19972;DHT22;10147;16.402;102.848;2023-09-30T00:10:55;25.70;99.90
19972;DHT22;10147;16.402;102.848;2023-09-30T00:13:25;25.70;99.90
19972;DHT22;10147;16.402;102.848;2023-09-30T00:15:56;25.80;99.90
19972;DHT22;10147;16.402;102.848;2023-09-30T00:18:27;25.80;99.90
19972;DHT22;10147;16.402;102.848;2023-09-30T00:20:57;25.80;99.90
19972;DHT22;10147;16.402;102.848;2023-09-30T00:23:27;25.90;99.90
19972;DHT22;10147;16.402;102.848;2023-09-30T00:26:02;25.90;99.90
19972;DHT22;10147;16.402;102.848;2023-09-30T00:28:33;25.90;99.90
19972;DHT22;10147;16.402;102.848;2023-09-30T00:31:07;25.80;99.90
19972;DHT22;10147;16.402;102.848;2023-09-30T00:33:40;25.90;99.90
19972;DHT22;10147;16.402;102.848;2023-09-30T00:36:11;25.90;99.90
19972;DHT22;10147;16.402;102.848;2023-09-30T00:38:42;26.00;99.90
19972;DHT22;10147;16.402;102.848;2023-09-30T00:41:12;26.00;99.90
19972;DHT22;10147;16.402;102.848;2023-09-30T00:43:46;26.10;99.90
19972;DHT22;10147;16.402;102.848;2023-09-30T00:46:37;26.20;99.90
19972;DHT22;10147;16.402;102.848;2023-09-30T00:49:10;26.20;99.90
19972;DHT22;10147;16.402;102.848;2023-09-30T00:51:44;26.10;99.90
19972;DHT22;10147;16.402;102.848;2023-09-30T00:54:17;26.10;99.90
19972;DHT22;10147;16.402;102.848;2023-09-30T00:56:50;26.10;99.90
19972;DHT22;10147;16.402;102.848;2023-09-30T00:59:20;26.10;99.90
19972;DHT22;10147;16.402;102.848;2023-09-30T01:01:51;26.10;99.90
19972;DHT22;10147;16.402;102.848;2023-09-30T01:04:22;26.20;99.90
19972;DHT22;10147;16.402;102.848;2023-09-30T01:06:52;26.20;99.90
19972;DHT22;10147;16.402;102.848;2023-09-30T01:09:22;26.20;99.90
19972;DHT22;10147;16.402;102.848;2023-09-30T01:11:52;26.10;99.90
19972;DHT22;10147;16.402;102.848;2023-09-30T01:14:30;26.20;99.90
19972;DHT22;10147;16.402;102.848;2023-09-30T01:17:01;26.10;99.90
19972;DHT22;10147;16.402;102.848;2023-09-30T01:19:32;26.10;99.90
19972;DHT22;10147;16.402;102.848;2023-09-30T01:22:02;26.30;99.90
19972;DHT22;10147;16.402;102.848;2023-09-30T01:24:41;26.40;99.90
19972;DHT22;10147;16.402;102.848;2023-09-30T01:27:12;26.40;99.90
19972;DHT22;10147;16.402;102.848;2023-09-30T01:29:42;26.50;99.90
19972;DHT22;10147;16.402;102.848;2023-09-30T01:32:14;26.70;99.90
19972;DHT22;10147;16.402;102.848;2023-09-30T01:34:44;26.80;99.90
19972;DHT22;10147;16.402;102.848;2023-09-30T01:37:14;27.00;99.90
19972;DHT22;10147;16.402;102.848;2023-09-30T01:39:44;27.30;99.90
19972;DHT22;10147;16.402;102.848;2023-09-30T01:42:15;27.40;99.90
19972;DHT22;10147;16.402;102.848;2023-09-30T01:44:45;27.50;99.90
19972;DHT22;10147;16.402;102.848;2023-09-30T01:47:15;27.60;99.90
19972;DHT22;10147;16.402;102.848;2023-09-30T01:49:45;27.80;99.90
19972;DHT22;10147;16.402;102.848;2023-09-30T01:52:15;27.90;99.90
19972;DHT22;10147;16.402;102.848;2023-09-30T01:54:46;28.00;99.90
19972;DHT22;10147;16.402;102.848;2023-09-30T01:57:15;28.10;99.90
19972;DHT22;10147;16.402;102.848;2023-09-30T01:59:46;28.20;99.90
19972;DHT22;10147;16.402;102.848;2023-09-30T02:02:16;28.20;99.90
19972;DHT22;10147;16.402;102.848;2023-09-30T02:04:47;28.10;99.90
19972;DHT22;10147;16.402;102.848;2023-09-30T02:07:17;27.80;99.90
19972;DHT22;10147;16.402;102.848;2023-09-30T02:09:47;27.80;99.90
19972;DHT22;10147;16.402;102.848;2023-09-30T02:12:18;27.80;99.90
19972;DHT22;10147;16.402;102.848;2023-09-30T02:14:48;27.80;99.90
19972;DHT22;10147;16.402;102.848;2023-09-30T02:17:18;28.00;99.90
19972;DHT22;10147;16.402;102.848;2023-09-30T02:19:48;28.30;99.90
19972;DHT22;10147;16.402;102.848;2023-09-30T02:22:19;28.20;99.90
19972;DHT22;10147;16.402;102.848;2023-09-30T02:24:49;28.40;99.90
19972;DHT22;10147;16.402;102.848;2023-09-30T02:27:19;28.40;99.90
19972;DHT22;10147;16.402;102.848;2023-09-30T02:29:49;28.30;99.90
19972;DHT22;10147;16.402;102.848;2023-09-30T02:32:19;28.30;99.90
19972;DHT22;10147;16.402;102.848;2023-09-30T02:34:49;28.30;99.90
19972;DHT22;10147;16.402;102.848;2023-09-30T02:37:20;28.30;99.90
19972;DHT22;10147;16.402;102.848;2023-09-30T02:39:49;28.40;99.90
19972;DHT22;10147;16.402;102.848;2023-09-30T02:42:20;28.40;99.90
19972;DHT22;10147;16.402;102.848;2023-09-30T02:44:53;28.40;99.90
19972;DHT22;10147;16.402;102.848;2023-09-30T02:47:24;28.40;99.90
19972;DHT22;10147;16.402;102.848;2023-09-30T02:49:59;28.30;99.90
19972;DHT22;10147;16.402;102.848;2023-09-30T02:52:30;28.30;99.90
19972;DHT22;10147;16.402;102.848;2023-09-30T02:55:03;28.30;99.90
19972;DHT22;10147;16.402;102.848;2023-09-30T02:57:33;28.30;99.90
19972;DHT22;10147;16.402;102.848;2023-09-30T03:00:06;28.40;99.90
19972;DHT22;10147;16.402;102.848;2023-09-30T03:02:56;28.50;99.90
19972;DHT22;10147;16.402;102.848;2023-09-30T03:05:30;28.60;99.90
19972;DHT22;10147;16.402;102.848;2023-09-30T03:08:05;28.90;99.90
19972;DHT22;10147;16.402;102.848;2023-09-30T03:10:35;29.20;99.90
19972;DHT22;10147;16.402;102.848;2023-09-30T03:13:09;29.30;99.90
19972;DHT22;10147;16.402;102.848;2023-09-30T03:15:40;29.40;99.90
19972;DHT22;10147;16.402;102.848;2023-09-30T03:18:10;29.40;99.90
19972;DHT22;10147;16.402;102.848;2023-09-30T03:20:41;29.50;99.90
19972;DHT22;10147;16.402;102.848;2023-09-30T03:23:12;29.60;99.90
19972;DHT22;10147;16.402;102.848;2023-09-30T03:25:43;29.60;99.90
19972;DHT22;10147;16.402;102.848;2023-09-30T03:28:13;29.60;99.90
19972;DHT22;10147;16.402;102.848;2023-09-30T03:30:44;29.60;99.90
19972;DHT22;10147;16.402;102.848;2023-09-30T03:33:14;29.80;99.90
19972;DHT22;10147;16.402;102.848;2023-09-30T03:35:45;29.80;99.90
19972;DHT22;10147;16.402;102.848;2023-09-30T03:38:15;29.90;99.90
19972;DHT22;10147;16.402;102.848;2023-09-30T03:40:48;30.00;99.90
19972;DHT22;10147;16.402;102.848;2023-09-30T03:43:17;30.10;99.90
19972;DHT22;10147;16.402;102.848;2023-09-30T03:45:48;30.10;99.90
19972;DHT22;10147;16.402;102.848;2023-09-30T03:48:18;30.10;99.90
19972;DHT22;10147;16.402;102.848;2023-09-30T03:50:48;30.10;99.90
19972;DHT22;10147;16.402;102.848;2023-09-30T03:53:18;30.10;99.90
19972;DHT22;10147;16.402;102.848;2023-09-30T03:55:49;29.90;99.90
19972;DHT22;10147;16.402;102.848;2023-09-30T03:58:20;29.90;99.90
19972;DHT22;10147;16.402;102.848;2023-09-30T04:00:51;30.00;99.90
19972;DHT22;10147;16.402;102.848;2023-09-30T04:03:22;30.00;99.90
19972;DHT22;10147;16.402;102.848;2023-09-30T04:05:53;30.20;99.90
19972;DHT22;10147;16.402;102.848;2023-09-30T04:08:23;30.20;99.90
19972;DHT22;10147;16.402;102.848;2023-09-30T04:10:53;30.10;99.90
19972;DHT22;10147;16.402;102.848;2023-09-30T04:13:24;30.10;99.90
19972;DHT22;10147;16.402;102.848;2023-09-30T04:15:53;30.00;99.90
19972;DHT22;10147;16.402;102.848;2023-09-30T04:18:24;30.30;99.90
19972;DHT22;10147;16.402;102.848;2023-09-30T04:20:56;30.50;99.90
19972;DHT22;10147;16.402;102.848;2023-09-30T04:23:26;30.70;99.90
19972;DHT22;10147;16.402;102.848;2023-09-30T04:25:56;30.80;99.90
19972;DHT22;10147;16.402;102.848;2023-09-30T04:28:27;31.00;99.90
19972;DHT22;10147;16.402;102.848;2023-09-30T04:30:56;31.20;99.90
19972;DHT22;10147;16.402;102.848;2023-09-30T04:33:28;31.40;99.90
19972;DHT22;10147;16.402;102.848;2023-09-30T04:35:58;31.10;99.90
19972;DHT22;10147;16.402;102.848;2023-09-30T04:38:29;31.20;99.90
19972;DHT22;10147;16.402;102.848;2023-09-30T04:41:00;31.20;99.90
19972;DHT22;10147;16.402;102.848;2023-09-30T04:43:34;31.00;99.90
19972;DHT22;10147;16.402;102.848;2023-09-30T04:46:04;30.90;99.90
19972;DHT22;10147;16.402;102.848;2023-09-30T04:48:37;30.80;99.90
19972;DHT22;10147;16.402;102.848;2023-09-30T04:51:08;30.70;99.90
19972;DHT22;10147;16.402;102.848;2023-09-30T04:53:38;30.70;99.90
19972;DHT22;10147;16.402;102.848;2023-09-30T04:56:08;30.90;99.90
19972;DHT22;10147;16.402;102.848;2023-09-30T04:58:39;30.80;99.90
19972;DHT22;10147;16.402;102.848;2023-09-30T05:01:09;30.80;99.90
19972;DHT22;10147;16.402;102.848;2023-09-30T05:03:40;30.80;99.90
19972;DHT22;10147;16.402;102.848;2023-09-30T05:06:10;30.70;99.90
19972;DHT22;10147;16.402;102.848;2023-09-30T05:08:42;31.00;99.90
19972;DHT22;10147;16.402;102.848;2023-09-30T05:11:12;31.20;99.90
19972;DHT22;10147;16.402;102.848;2023-09-30T05:13:42;31.10;99.90
19972;DHT22;10147;16.402;102.848;2023-09-30T05:16:12;31.10;99.90
19972;DHT22;10147;16.402;102.848;2023-09-30T05:18:43;31.10;99.90
19972;DHT22;10147;16.402;102.848;2023-09-30T05:21:13;31.10;99.90
19972;DHT22;10147;16.402;102.848;2023-09-30T05:23:44;31.10;99.90
19972;DHT22;10147;16.402;102.848;2023-09-30T05:26:14;31.10;99.90
19972;DHT22;10147;16.402;102.848;2023-09-30T05:28:46;31.10;99.90
19972;DHT22;10147;16.402;102.848;2023-09-30T05:31:16;31.10;99.90
19972;DHT22;10147;16.402;102.848;2023-09-30T05:33:46;31.10;99.90
19972;DHT22;10147;16.402;102.848;2023-09-30T05:36:16;31.00;99.90
19972;DHT22;10147;16.402;102.848;2023-09-30T05:38:46;30.80;99.90
19972;DHT22;10147;16.402;102.848;2023-09-30T05:41:17;30.70;99.90
19972;DHT22;10147;16.402;102.848;2023-09-30T05:43:50;30.60;99.90
19972;DHT22;10147;16.402;102.848;2023-09-30T05:46:20;30.70;99.90
19972;DHT22;10147;16.402;102.848;2023-09-30T05:48:51;30.60;99.90
19972;DHT22;10147;16.402;102.848;2023-09-30T05:51:21;30.60;99.90
19972;DHT22;10147;16.402;102.848;2023-09-30T05:53:51;30.60;99.90
19972;DHT22;10147;16.402;102.848;2023-09-30T05:56:21;30.70;99.90
19972;DHT22;10147;16.402;102.848;2023-09-30T05:58:52;30.80;99.90
19972;DHT22;10147;16.402;102.848;2023-09-30T06:01:23;30.80;99.90
19972;DHT22;10147;16.402;102.848;2023-09-30T06:03:53;31.00;99.90
19972;DHT22;10147;16.402;102.848;2023-09-30T06:06:24;31.30;99.90
19972;DHT22;10147;16.402;102.848;2023-09-30T06:08:56;31.20;99.90
19972;DHT22;10147;16.402;102.848;2023-09-30T06:11:28;31.20;99.90
19972;DHT22;10147;16.402;102.848;2023-09-30T06:13:59;31.70;99.90
19972;DHT22;10147;16.402;102.848;2023-09-30T06:16:30;32.00;99.90
19972;DHT22;10147;16.402;102.848;2023-09-30T06:19:01;32.40;99.90
19972;DHT22;10147;16.402;102.848;2023-09-30T06:21:33;32.30;99.90
19972;DHT22;10147;16.402;102.848;2023-09-30T06:24:04;32.00;99.90
19972;DHT22;10147;16.402;102.848;2023-09-30T06:26:35;31.80;99.90
19972;DHT22;10147;16.402;102.848;2023-09-30T06:29:05;31.60;99.90
19972;DHT22;10147;16.402;102.848;2023-09-30T06:31:36;31.50;99.90
19972;DHT22;10147;16.402;102.848;2023-09-30T06:34:06;31.50;99.90
19972;DHT22;10147;16.402;102.848;2023-09-30T06:36:36;32.00;99.90
19972;DHT22;10147;16.402;102.848;2023-09-30T06:39:07;32.20;99.90
19972;DHT22;10147;16.402;102.848;2023-09-30T06:41:38;32.00;99.90
19972;DHT22;10147;16.402;102.848;2023-09-30T06:44:11;31.90;99.90
19972;DHT22;10147;16.402;102.848;2023-09-30T06:46:42;31.70;99.90
19972;DHT22;10147;16.402;102.848;2023-09-30T06:49:13;32.00;99.90
19972;DHT22;10147;16.402;102.848;2023-09-30T06:51:43;32.50;99.90
19972;DHT22;10147;16.402;102.848;2023-09-30T06:54:13;32.50;99.90
19972;DHT22;10147;16.402;102.848;2023-09-30T06:56:43;32.70;99.90
19972;DHT22;10147;16.402;102.848;2023-09-30T06:59:13;32.70;99.90
19972;DHT22;10147;16.402;102.848;2023-09-30T07:01:43;32.70;99.90
19972;DHT22;10147;16.402;102.848;2023-09-30T07:04:13;32.60;99.90
19972;DHT22;10147;16.402;102.848;2023-09-30T07:06:43;32.60;99.90
19972;DHT22;10147;16.402;102.848;2023-09-30T07:09:14;32.80;99.90
19972;DHT22;10147;16.402;102.848;2023-09-30T07:11:43;33.10;99.90
19972;DHT22;10147;16.402;102.848;2023-09-30T07:14:13;33.10;99.90
19972;DHT22;10147;16.402;102.848;2023-09-30T07:16:43;33.10;99.90
19972;DHT22;10147;16.402;102.848;2023-09-30T07:19:14;33.20;99.90
19972;DHT22;10147;16.402;102.848;2023-09-30T07:21:44;33.40;99.90
19972;DHT22;10147;16.402;102.848;2023-09-30T07:24:31;33.50;99.90
19972;DHT22;10147;16.402;102.848;2023-09-30T07:27:01;33.50;99.90
19972;DHT22;10147;16.402;102.848;2023-09-30T07:29:48;33.60;99.90
19972;DHT22;10147;16.402;102.848;2023-09-30T07:32:18;33.90;99.90
19972;DHT22;10147;16.402;102.848;2023-09-30T07:34:51;33.90;99.90
19972;DHT22;10147;16.402;102.848;2023-09-30T07:37:22;34.00;99.90
19972;DHT22;10147;16.402;102.848;2023-09-30T07:39:52;33.80;99.90
19972;DHT22;10147;16.402;102.848;2023-09-30T07:42:22;33.80;99.90
19972;DHT22;10147;16.402;102.848;2023-09-30T07:44:53;34.10;99.90
19972;DHT22;10147;16.402;102.848;2023-09-30T07:47:23;34.20;99.90
19972;DHT22;10147;16.402;102.848;2023-09-30T07:49:54;34.20;99.90
19972;DHT22;10147;16.402;102.848;2023-09-30T07:52:25;34.20;99.90
19972;DHT22;10147;16.402;102.848;2023-09-30T07:54:55;34.10;99.90
19972;DHT22;10147;16.402;102.848;2023-09-30T07:57:25;33.90;99.90
19972;DHT22;10147;16.402;102.848;2023-09-30T07:59:55;33.50;99.90
19972;DHT22;10147;16.402;102.848;2023-09-30T08:02:25;33.40;99.90
19972;DHT22;10147;16.402;102.848;2023-09-30T08:05:05;33.50;99.90
19972;DHT22;10147;16.402;102.848;2023-09-30T08:07:35;33.60;99.90
19972;DHT22;10147;16.402;102.848;2023-09-30T08:10:07;33.60;99.90
19972;DHT22;10147;16.402;102.848;2023-09-30T08:12:42;33.60;99.90
19972;DHT22;10147;16.402;102.848;2023-09-30T08:15:16;33.50;99.90
19972;DHT22;10147;16.402;102.848;2023-09-30T08:17:46;33.60;99.90
19972;DHT22;10147;16.402;102.848;2023-09-30T08:20:16;33.50;99.90
19972;DHT22;10147;16.402;102.848;2023-09-30T08:22:48;33.40;99.90
19972;DHT22;10147;16.402;102.848;2023-09-30T08:25:19;33.50;99.90
19972;DHT22;10147;16.402;102.848;2023-09-30T08:27:49;33.50;99.90
19972;DHT22;10147;16.402;102.848;2023-09-30T08:30:19;33.40;99.90
19972;DHT22;10147;16.402;102.848;2023-09-30T08:32:49;33.50;99.90
19972;DHT22;10147;16.402;102.848;2023-09-30T08:35:20;33.50;99.90
19972;DHT22;10147;16.402;102.848;2023-09-30T08:37:50;33.50;99.90
19972;DHT22;10147;16.402;102.848;2023-09-30T08:40:21;33.50;99.90
19972;DHT22;10147;16.402;102.848;2023-09-30T08:42:54;33.50;99.90
19972;DHT22;10147;16.402;102.848;2023-09-30T08:45:28;33.50;99.90
19972;DHT22;10147;16.402;102.848;2023-09-30T08:48:00;33.30;99.90
19972;DHT22;10147;16.402;102.848;2023-09-30T08:50:35;33.10;99.90
19972;DHT22;10147;16.402;102.848;2023-09-30T08:53:11;33.00;99.90
19972;DHT22;10147;16.402;102.848;2023-09-30T08:55:44;33.00;99.90
19972;DHT22;10147;16.402;102.848;2023-09-30T08:58:15;33.00;99.90
19972;DHT22;10147;16.402;102.848;2023-09-30T09:00:45;33.00;99.90
19972;DHT22;10147;16.402;102.848;2023-09-30T09:03:18;33.00;99.90
19972;DHT22;10147;16.402;102.848;2023-09-30T09:05:55;32.80;99.90
19972;DHT22;10147;16.402;102.848;2023-09-30T09:08:26;32.80;99.90
19972;DHT22;10147;16.402;102.848;2023-09-30T09:10:59;32.90;99.90
19972;DHT22;10147;16.402;102.848;2023-09-30T09:13:46;32.90;99.90
19972;DHT22;10147;16.402;102.848;2023-09-30T09:16:19;32.90;99.90
19972;DHT22;10147;16.402;102.848;2023-09-30T09:18:49;32.80;99.90
19972;DHT22;10147;16.402;102.848;2023-09-30T09:21:21;32.80;99.90
19972;DHT22;10147;16.402;102.848;2023-09-30T09:23:54;32.70;99.90
19972;DHT22;10147;16.402;102.848;2023-09-30T09:26:29;32.60;99.90
19972;DHT22;10147;16.402;102.848;2023-09-30T09:29:02;32.40;99.90
19972;DHT22;10147;16.402;102.848;2023-09-30T09:31:35;32.40;99.90
19972;DHT22;10147;16.402;102.848;2023-09-30T09:34:14;32.40;99.90
19972;DHT22;10147;16.402;102.848;2023-09-30T09:36:45;32.20;99.90
19972;DHT22;10147;16.402;102.848;2023-09-30T09:39:15;32.10;99.90
19972;DHT22;10147;16.402;102.848;2023-09-30T09:41:53;31.90;99.90
19972;DHT22;10147;16.402;102.848;2023-09-30T09:44:24;31.80;99.90
19972;DHT22;10147;16.402;102.848;2023-09-30T09:46:55;31.70;99.90
19972;DHT22;10147;16.402;102.848;2023-09-30T09:49:28;31.60;99.90
19972;DHT22;10147;16.402;102.848;2023-09-30T09:51:59;31.60;99.90
19972;DHT22;10147;16.402;102.848;2023-09-30T09:54:31;31.60;99.90
19972;DHT22;10147;16.402;102.848;2023-09-30T09:57:03;31.70;99.90
19972;DHT22;10147;16.402;102.848;2023-09-30T09:59:36;31.60;99.90
19972;DHT22;10147;16.402;102.848;2023-09-30T10:02:11;31.40;99.90
19972;DHT22;10147;16.402;102.848;2023-09-30T10:04:45;31.50;99.90
19972;DHT22;10147;16.402;102.848;2023-09-30T10:07:25;31.40;99.90
19972;DHT22;10147;16.402;102.848;2023-09-30T10:10:00;31.40;99.90
19972;DHT22;10147;16.402;102.848;2023-09-30T10:12:39;31.40;99.90
19972;DHT22;10147;16.402;102.848;2023-09-30T10:15:37;31.30;99.90
19972;DHT22;10147;16.402;102.848;2023-09-30T10:18:11;31.30;99.90
19972;DHT22;10147;16.402;102.848;2023-09-30T10:20:44;31.20;99.90
19972;DHT22;10147;16.402;102.848;2023-09-30T10:23:21;31.30;99.90
19972;DHT22;10147;16.402;102.848;2023-09-30T10:26:14;31.30;99.90
19972;DHT22;10147;16.402;102.848;2023-09-30T10:28:48;31.10;99.90
19972;DHT22;10147;16.402;102.848;2023-09-30T10:31:23;31.00;99.90
19972;DHT22;10147;16.402;102.848;2023-09-30T10:34:19;31.00;99.90
19972;DHT22;10147;16.402;102.848;2023-09-30T10:36:50;31.00;99.90
19972;DHT22;10147;16.402;102.848;2023-09-30T10:42:52;30.50;99.90
19972;DHT22;10147;16.402;102.848;2023-09-30T10:45:45;29.90;99.90
19972;DHT22;10147;16.402;102.848;2023-09-30T10:48:36;29.80;99.90
19972;DHT22;10147;16.402;102.848;2023-09-30T10:51:15;29.60;99.90
19972;DHT22;10147;16.402;102.848;2023-09-30T10:53:48;29.70;99.90
19972;DHT22;10147;16.402;102.848;2023-09-30T10:56:19;29.70;99.90
19972;DHT22;10147;16.402;102.848;2023-09-30T10:58:51;29.50;99.90
19972;DHT22;10147;16.402;102.848;2023-09-30T11:01:23;29.20;99.90
19972;DHT22;10147;16.402;102.848;2023-09-30T11:03:59;28.90;99.90
19972;DHT22;10147;16.402;102.848;2023-09-30T11:06:34;28.80;99.90
19972;DHT22;10147;16.402;102.848;2023-09-30T11:09:04;28.70;99.90
19972;DHT22;10147;16.402;102.848;2023-09-30T11:11:47;28.60;99.90
19972;DHT22;10147;16.402;102.848;2023-09-30T11:14:28;28.40;99.90
19972;DHT22;10147;16.402;102.848;2023-09-30T11:17:01;28.30;99.90
19972;DHT22;10147;16.402;102.848;2023-09-30T11:19:36;28.50;99.90
19972;DHT22;10147;16.402;102.848;2023-09-30T11:22:07;28.50;99.90
19972;DHT22;10147;16.402;102.848;2023-09-30T11:24:37;28.50;99.90
19972;DHT22;10147;16.402;102.848;2023-09-30T11:27:08;28.60;99.90
19972;DHT22;10147;16.402;102.848;2023-09-30T11:29:49;28.60;99.90
19972;DHT22;10147;16.402;102.848;2023-09-30T11:32:26;28.50;99.90
19972;DHT22;10147;16.402;102.848;2023-09-30T11:34:58;28.50;99.90
19972;DHT22;10147;16.402;102.848;2023-09-30T11:37:32;28.60;99.90
19972;DHT22;10147;16.402;102.848;2023-09-30T11:40:11;28.50;99.90
19972;DHT22;10147;16.402;102.848;2023-09-30T11:42:41;28.40;99.90
19972;DHT22;10147;16.402;102.848;2023-09-30T11:45:21;28.50;99.90
19972;DHT22;10147;16.402;102.848;2023-09-30T11:47:54;28.40;99.90
19972;DHT22;10147;16.402;102.848;2023-09-30T11:50:26;28.40;99.90
19972;DHT22;10147;16.402;102.848;2023-09-30T11:53:18;28.30;99.90
19972;DHT22;10147;16.402;102.848;2023-09-30T11:55:50;28.30;99.90
19972;DHT22;10147;16.402;102.848;2023-09-30T11:58:19;28.30;99.90
19972;DHT22;10147;16.402;102.848;2023-09-30T12:00:52;28.20;99.90
19972;DHT22;10147;16.402;102.848;2023-09-30T12:03:23;28.20;99.90
19972;DHT22;10147;16.402;102.848;2023-09-30T12:05:54;28.20;99.90
19972;DHT22;10147;16.402;102.848;2023-09-30T12:08:29;28.20;99.90
19972;DHT22;10147;16.402;102.848;2023-09-30T12:10:59;28.10;99.90
19972;DHT22;10147;16.402;102.848;2023-09-30T12:13:30;28.00;99.90
19972;DHT22;10147;16.402;102.848;2023-09-30T12:16:01;28.10;99.90
19972;DHT22;10147;16.402;102.848;2023-09-30T12:18:31;28.20;99.90
19972;DHT22;10147;16.402;102.848;2023-09-30T12:21:01;28.30;99.90
19972;DHT22;10147;16.402;102.848;2023-09-30T12:23:31;28.20;99.90
19972;DHT22;10147;16.402;102.848;2023-09-30T12:26:01;28.30;99.90
19972;DHT22;10147;16.402;102.848;2023-09-30T12:28:44;28.10;99.90
19972;DHT22;10147;16.402;102.848;2023-09-30T12:31:14;28.10;99.90
19972;DHT22;10147;16.402;102.848;2023-09-30T12:33:45;28.40;99.90
19972;DHT22;10147;16.402;102.848;2023-09-30T12:36:21;28.20;99.90
19972;DHT22;10147;16.402;102.848;2023-09-30T12:38:51;28.20;99.90
19972;DHT22;10147;16.402;102.848;2023-09-30T12:41:21;28.10;99.90
19972;DHT22;10147;16.402;102.848;2023-09-30T12:43:51;28.10;99.90
19972;DHT22;10147;16.402;102.848;2023-09-30T12:46:21;28.20;99.90
19972;DHT22;10147;16.402;102.848;2023-09-30T12:48:51;28.10;99.90
19972;DHT22;10147;16.402;102.848;2023-09-30T12:51:20;28.00;99.90
19972;DHT22;10147;16.402;102.848;2023-09-30T12:53:51;28.10;99.90
19972;DHT22;10147;16.402;102.848;2023-09-30T12:56:21;28.00;99.90
19972;DHT22;10147;16.402;102.848;2023-09-30T12:58:51;28.10;99.90
19972;DHT22;10147;16.402;102.848;2023-09-30T13:01:21;28.10;99.90
19972;DHT22;10147;16.402;102.848;2023-09-30T13:03:52;28.40;99.90
19972;DHT22;10147;16.402;102.848;2023-09-30T13:06:22;28.30;99.90
19972;DHT22;10147;16.402;102.848;2023-09-30T13:08:51;28.50;99.90
19972;DHT22;10147;16.402;102.848;2023-09-30T13:11:22;28.60;99.90
19972;DHT22;10147;16.402;102.848;2023-09-30T13:13:51;28.30;99.90
19972;DHT22;10147;16.402;102.848;2023-09-30T13:16:22;28.20;99.90
19972;DHT22;10147;16.402;102.848;2023-09-30T13:18:52;28.20;99.90
19972;DHT22;10147;16.402;102.848;2023-09-30T13:21:22;28.20;99.90
19972;DHT22;10147;16.402;102.848;2023-09-30T13:23:52;28.30;99.90
19972;DHT22;10147;16.402;102.848;2023-09-30T13:26:22;28.40;99.90
19972;DHT22;10147;16.402;102.848;2023-09-30T13:28:53;28.50;99.90
19972;DHT22;10147;16.402;102.848;2023-09-30T13:31:23;28.50;99.90
19972;DHT22;10147;16.402;102.848;2023-09-30T13:33:56;28.30;99.90
19972;DHT22;10147;16.402;102.848;2023-09-30T13:36:26;28.30;99.90
19972;DHT22;10147;16.402;102.848;2023-09-30T13:38:56;28.40;99.90
19972;DHT22;10147;16.402;102.848;2023-09-30T13:41:27;28.10;99.90
19972;DHT22;10147;16.402;102.848;2023-09-30T13:43:56;27.90;99.90
19972;DHT22;10147;16.402;102.848;2023-09-30T13:46:27;27.80;99.90
19972;DHT22;10147;16.402;102.848;2023-09-30T13:48:58;27.70;99.90
19972;DHT22;10147;16.402;102.848;2023-09-30T13:51:28;27.70;99.90
19972;DHT22;10147;16.402;102.848;2023-09-30T13:53:58;27.80;99.90
19972;DHT22;10147;16.402;102.848;2023-09-30T13:56:28;27.80;99.90
19972;DHT22;10147;16.402;102.848;2023-09-30T13:58:59;27.80;99.90
19972;DHT22;10147;16.402;102.848;2023-09-30T14:01:29;27.80;99.90
19972;DHT22;10147;16.402;102.848;2023-09-30T14:03:59;27.80;99.90
19972;DHT22;10147;16.402;102.848;2023-09-30T14:06:29;27.90;99.90
19972;DHT22;10147;16.402;102.848;2023-09-30T14:08:59;28.00;99.90
19972;DHT22;10147;16.402;102.848;2023-09-30T14:11:29;28.20;99.90
19972;DHT22;10147;16.402;102.848;2023-09-30T14:14:00;28.20;99.90
19972;DHT22;10147;16.402;102.848;2023-09-30T14:16:30;28.30;99.90
19972;DHT22;10147;16.402;102.848;2023-09-30T14:19:00;28.40;99.90
19972;DHT22;10147;16.402;102.848;2023-09-30T14:21:30;28.40;99.90
19972;DHT22;10147;16.402;102.848;2023-09-30T14:24:01;28.40;99.90
19972;DHT22;10147;16.402;102.848;2023-09-30T14:26:31;28.20;99.90
19972;DHT22;10147;16.402;102.848;2023-09-30T14:29:02;28.20;99.90
19972;DHT22;10147;16.402;102.848;2023-09-30T14:31:31;28.10;99.90
19972;DHT22;10147;16.402;102.848;2023-09-30T14:34:05;28.10;99.90
19972;DHT22;10147;16.402;102.848;2023-09-30T14:36:35;28.20;99.90
19972;DHT22;10147;16.402;102.848;2023-09-30T14:39:05;28.30;99.90
19972;DHT22;10147;16.402;102.848;2023-09-30T14:41:45;28.10;99.90
19972;DHT22;10147;16.402;102.848;2023-09-30T14:44:16;28.20;99.90
19972;DHT22;10147;16.402;102.848;2023-09-30T14:46:46;28.30;99.90
19972;DHT22;10147;16.402;102.848;2023-09-30T14:49:17;28.30;99.90
19972;DHT22;10147;16.402;102.848;2023-09-30T14:51:47;28.30;99.90
19972;DHT22;10147;16.402;102.848;2023-09-30T14:54:18;28.30;99.90
19972;DHT22;10147;16.402;102.848;2023-09-30T14:56:48;28.20;99.90
19972;DHT22;10147;16.402;102.848;2023-09-30T14:59:18;28.10;99.90
19972;DHT22;10147;16.402;102.848;2023-09-30T15:01:48;27.70;99.90
19972;DHT22;10147;16.402;102.848;2023-09-30T15:04:18;27.60;99.90
19972;DHT22;10147;16.402;102.848;2023-09-30T15:06:49;27.70;99.90
19972;DHT22;10147;16.402;102.848;2023-09-30T15:09:19;27.70;99.90
19972;DHT22;10147;16.402;102.848;2023-09-30T15:11:49;27.80;99.90
19972;DHT22;10147;16.402;102.848;2023-09-30T15:14:18;27.80;99.90
19972;DHT22;10147;16.402;102.848;2023-09-30T15:16:48;27.80;99.90
19972;DHT22;10147;16.402;102.848;2023-09-30T15:19:18;27.60;99.90
19972;DHT22;10147;16.402;102.848;2023-09-30T15:21:48;27.40;99.90
19972;DHT22;10147;16.402;102.848;2023-09-30T15:24:18;27.50;99.90
19972;DHT22;10147;16.402;102.848;2023-09-30T15:26:49;27.80;99.90
19972;DHT22;10147;16.402;102.848;2023-09-30T15:29:19;27.90;99.90
19972;DHT22;10147;16.402;102.848;2023-09-30T15:31:49;27.90;99.90
19972;DHT22;10147;16.402;102.848;2023-09-30T15:34:19;27.50;99.90